Aviation Digital Data Service (ADDS)

Output produced by METARs form (0425 UTC 19 January 2017)
found at http://aviationweather.gov/adds/metars/
 
KDAG 190350Z AUTO 29008KT 10SM -RA OVC070 09/04 A3002 RMK AO2 SLP167 P0002 T00940044
KDAG 182320Z 1900/1924 23010KT P6SM SCT100 BKN200 
     FM190300 24014G22KT P6SM -SHRA SCT040 OVC080 
     FM190600 24010KT P6SM -SHRA SCT040 OVC080 
     FM191900 25015G25KT P6SM VCSH BKN080
       
KEDW 190358Z 22011G17KT 15SM -RA FEW030 BKN040 OVC080 08/05 A2998 RMK AO2A SLP160 P0000 T00770054
TAF AMD KEDW 190312Z 1903/2008 23012KT 9999 -SHRA FEW020 BKN040 OVC080 610802 QNH2995INS 
     BECMG 1905/1906 24015G20KT 8000 -SHRA BR SCT020 BKN040 OVC080 610802 510009 QNH2990INS 
     TEMPO 1908/1912 24025G35KT 520009 
     BECMG 1914/1915 23012G18KT 9999 VCSH FEW020 SCT040 SCT080 BKN210 QNH2982INS 
     TEMPO 1915/1921 25018G25KT -SHRA BKN080 510009 TS DSNT OMTNS 
     BECMG 1921/1922 24015G25KT 9999 NSW FEW040 SCT080 BKN210 510009 QNH2980INS TX13/1923Z TN06/1914Z
       
KVCV 190415Z AUTO 19012KT 10SM -RA OVC065 08/03 A3001 RMK AO2
KONT 190353Z 27005KT 10SM SCT025 OVC100 11/07 A3011 RMK AO2 SLP200 PRESENT WX VCSH T01110072
KONT 190249Z 1903/2006 27008KT P6SM FEW040 BKN200 
     FM190400 VRB06KT P6SM VCSH BKN025 OVC040 
     FM191000 08010KT 4SM RA BR BKN015 OVC025 
     FM191900 24009KT P6SM -SHRA BKN025 BKN035 
     FM192100 25010G20KT P6SM VCSH SCT025 BKN040 
     FM200300 VRB05KT P6SM VCSH BKN040
       
KSNA 190353Z 09007KT 10SM -RA FEW060 SCT070 OVC090 13/09 A3011 RMK AO2 RAB29 SLP197 P0001 T01330094 $
KSNA 182320Z 1900/1924 VRB05KT P6SM SCT025 BKN200 
     FM190600 13007KT P6SM VCSH BKN025 OVC035 
     FM190900 14012KT 4SM RA BR BKN015 OVC025 
     FM191800 23010KT P6SM -SHRA SCT015 BKN025
       
KSAN 190351Z 35004KT 10SM FEW023 SCT029 BKN140 BKN220 15/08 A3017 RMK AO2 SLP217 T01500083
KSAN 190125Z 1901/2006 VRB05KT P6SM SCT015 BKN025 
     FM190600 17008KT P6SM VCSH BKN015 BKN025 
     FM191300 18012G20KT 4SM RA BR SCT007 OVC015 
     FM192100 26014KT P6SM -SHRA SCT015 BKN025 
     FM200100 27007KT P6SM VCSH BKN025
       
KNID 190356Z 18020G27KT 10SM FEW060 SCT110 BKN140 08/04 A2992 RMK AO2 PK WND 18028/0343 RAE33 SLP140 P0000 T00780033 $
TAF AMD KNID 1901/1923 20012G20KT 9999 VCSHRA FEW050 BKN070 OVC100 640709 651606 520009 520909 QNH2994INS 
     TEMPO 1900/1905 20020G30KT 9000 SHRA SCT030 BKN050 OVC070 
     BECMG 1904/1905 20012G22KT 8000 -RA FEW025 BKN040 OVC060 640709 641606 550009 550909 QNH2980INS WND 160V240 
     TEMPO 1905/1916 20020G30KT 5000 -SHRA BR BKN025 OVC040 
     BECMG 1916/1918 21015G25KT 9999 VCSHRA FEW040 SCT070 BKN120 611206 520009 540909 QNH2970INS T04/1914Z T13/1923Z LAST NO AMDS AFT 1906 NEXT 1915 AMD 0135
       
KNXP 190356Z 29006KT 10SM SCT100 BKN180 13/01 A3011 RMK AO2 SLP181 T01280006
TAF KNXP 1903/2003 20006KT 9999 SCT200 QNH3000INS 
     FM190600 21008KT 9000 SHRA BR BKN035 OVC050 QNH2998INS 
     BECMG 1910/1912 21006KT 9999 SCT030 SCT200 QNH2996INS 
     TEMPO 1912/1917 9000 SHRA BR OVC020 
     FM191730 25015G25KT 9999 BKN030 QNH2992INS AUTOMATED SENSOR METWATCH 1905 TIL 1915 T06/1915Z T14/1923Z
       
KPSP 190353Z 00000KT 10SM CLR 15/01 A3006 RMK AO2 SLP182 T01500011
KPSP 182320Z 1900/1924 VRB06KT P6SM BKN100 
     FM191800 VRB06KT P6SM -SHRA BKN050 BKN080
       
KLAX 190353Z 10009KT 10SM -RA OVC085 12/10 A3008 RMK AO2 SLP187 P0003 T01220100
KLAX 190314Z 1903/2006 25010KT 6SM -RA BR SCT025 BKN050 
     FM190400 17008KT 6SM -SHRA BR SCT025 OVC050 
     FM190600 15012G20KT 6SM -SHRA BR BKN025 OVC050 
     FM191000 13015G25KT 3SM RA BR BKN012 OVC025 
     FM191400 19015G25KT 2SM TSRA BR BKN007 OVC015CB 
     FM191600 25015G25KT P6SM -SHRA BKN025 BKN050
       
KCNO 190353Z 21004KT 10SM BKN070 OVC090 12/08 A3013 RMK AO2 SLP203 T01220078
KSMO 190351Z 09005KT 10SM -RA OVC085 12/11 A3008 RMK AO2 SLP185 P0003 T01170106
KSMO 190314Z 1903/1924 25009KT 6SM -RA BR SCT025 BKN050 
     FM190400 16008KT 6SM -SHRA BR SCT025 OVC050 
     FM190500 14010G16KT 6SM -SHRA BR BKN025 OVC050 
     FM190900 12015G25KT 3SM RA BR BKN012 OVC025 
     FM191300 21015G25KT 2SM TSRA BR BKN007 OVC015CB 
     FM191500 23012KT P6SM -SHRA BKN025 BKN050
       
KLGB 190353Z 11004KT 10SM -RA OVC090 12/09 A3011 RMK AO2 SLP195 P0005 T01220094
KLGB 190216Z 1902/1924 22008KT 6SM -RA BR SCT025 BKN050 
     FM190500 18008KT 5SM -RA BR BKN025 OVC050 
     FM190700 15012G20KT 6SM -SHRA BR BKN025 OVC050 
     FM191100 13015G25KT 3SM RA BR BKN012 OVC025 
     FM191500 18015G25KT 2SM TSRA BR BKN007 OVC015CB 
     FM191700 24012KT P6SM -SHRA BKN025 BKN050
       
KVNY 190351Z AUTO 10006KT 10SM -RA BKN070 OVC095 11/09 A3007 RMK AO2 SLP181 P0003 T01110094
KVNY 190318Z 1903/1924 19006KT 6SM -RA SCT025 OVC050 
     FM190500 13010KT 5SM -RA BR BKN025 OVC050 
     FM190900 13015G25KT 2SM +RA BR BKN007 OVC015 
     FM191300 14015G25KT 3SM TSRA BR BKN007 OVC015CB 
     FM191500 16015G25KT 5SM -RA BKN025 OVC040 
     FM191700 20010KT P6SM -SHRA BKN025 BKN050
       
KBUR 190353Z 12008KT 10SM -RA BKN075 OVC100 11/08 A3007 RMK AO2 SLP179 P0003 T01110083
KBUR 190317Z 1903/1924 15008KT 6SM -RA BR SCT025 OVC050 
     FM190600 14010KT 5SM RA BR BKN025 OVC050 
     FM191000 14015G25KT 2SM +RA BR BKN007 OVC015 
     FM191400 15015G25KT 3SM TSRA BR BKN007 OVC015CB 
     FM191600 17015G25KT 5SM -RA BKN025 OVC040 
     FM191800 20010KT P6SM -SHRA BKN025 BKN050
       
KBFL 190354Z 08005KT 10SM BKN100 BKN120 10/06 A2993 RMK AO2 RAE15 SLP132 P0001 T01000061
KBFL 190243Z 1903/1924 11006KT P6SM -RA SCT060 OVC080 
     FM190600 12012G18KT 3SM -RA BR SCT030 OVC050 
     TEMPO 1908/1912 18012G20KT 2SM SHRA BR BKN030 OVC050 
     FM191500 14010G20KT 3SM -SHRA BR SCT015 OVC030 
     FM192000 16008KT 4SM -SHRA BKN025 OVC045 
     PROB30 1921/1924 -TSRA BKN040CB
       
KPMD 190353Z AUTO 24017G26KT 10SM -RA OVC080 09/04 A3001 RMK AO2 PK WND 21031/0321 RAB31 SLP165 P0001 T00890039
KPMD 190010Z 1900/1924 23020G30KT P6SM BKN050 BKN100 
     FM190400 22020G30KT P6SM -SHRA OVC050 
     FM191100 23020G30KT 4SM +RA BR BKN017 OVC035 
     FM191500 24014G25KT 3SM TSRA BR BKN012 OVC025CB 
     FM191700 25020G30KT P6SM -SHRA BKN035 BKN060
       
KOXR 190351Z AUTO 07008KT 7SM BKN100 BKN120 12/10 A3006 RMK AO2 RAE32 SLP177 P0000 T01220100
KOXR 190411Z 1904/1924 12008KT 6SM -SHRA BR SCT025 BKN050 
     FM190800 10015G25KT 3SM RA BR BKN012 OVC025 
     FM191200 22015G25KT 2SM TSRA BR BKN007 OVC015CB 
     FM191400 26012KT P6SM -SHRA BKN025 BKN050
       
KWJF 190356Z 23011KT 10SM -RA FEW055 BKN070 OVC110 07/04 A3001 RMK AO2 SLP176 P0002 T00720044
KWJF 190011Z 1900/1924 23020G30KT P6SM BKN050 BKN100 
     FM190330 22020G30KT P6SM -SHRA OVC050 
     FM191030 23020G30KT 4SM +RA BR BKN017 OVC035 
     FM191430 24014G25KT 3SM TSRA BR BKN012 OVC025CB 
     FM191700 25023G33KT P6SM -SHRA BKN035 BKN060
       
KCMA 190355Z 06009KT 10SM -RA BKN095 OVC110 12/10 A3006 RMK AO2 SLP187 P0000 T01170100
KCMA 190412Z 1904/1924 08010KT 6SM -RA BR SCT025 OVC050 
     FM190800 09015G25KT 3SM RA BR BKN012 OVC025 
     FM191200 21015G25KT 2SM TSRA BR BKN007 OVC015CB 
     FM191400 25012KT P6SM -SHRA BKN025 BKN050
       
KFAT 190353Z 11010KT 10SM -RA BKN070 OVC085 09/06 A2994 RMK AO2 SLP137 P0000 T00940061
KFAT 190331Z 1904/1924 13014KT P6SM -RA OVC070 
     TEMPO 1904/1908 14017G25KT 2SM SHRA BR BKN030 OVC050 
     FM191400 14010G20KT 3SM -SHRA BR SCT015 OVC030 
     FM192000 16008KT 4SM -SHRA BKN025 OVC045 
     PROB30 1920/1924 -TSRA BKN040CB
       
KEED 190356Z AUTO 25009KT 10SM CLR 14/M02 A3002 RMK AO2 SLP156 T01441022
KEED 182320Z 1900/1924 19007KT P6SM BKN250 
     FM190300 23008KT P6SM SCT080 BKN150 
     FM190700 27008KT P6SM -SHRA SCT050 OVC080 
     FM191600 18008KT P6SM -SHRA BKN050 OVC080
       
KLSV 190358Z AUTO 32004KT 10SM FEW090 OVC120 11/M03 A2994 RMK AO2 SLP142 T01141032
TAF KLSV 182302Z 1823/2005 VRB06KT 9999 BKN250 QNH2993INS 
     BECMG 1903/1904 20009KT 9999 SCT070 BKN100 520209 QNH2992INS 
     BECMG 1906/1907 20012G18KT 6000 -SHRA SCT020 BKN050 620509 520209 QNH2989INS 
     TEMPO 1907/1914 20015G25KT 520009 
     BECMG 1916/1917 21012KT 6000 -SHRA SCT030 BKN050 620509 520309 QNH2975INS 
     TEMPO 1917/2001 22015G20KT 520009 
     BECMG 2000/2001 20009KT 9999 NSW FEW050 SCT080 QNH2974INS TX14/1823Z TN04/1914Z
       
KLAS 190356Z 10003KT 10SM SCT120 BKN250 12/M05 A2993 RMK AO2 SLP135 T01221050
KLAS 190251Z 1903/1924 20008KT P6SM SCT100 BKN150 
     FM190500 21011G17KT P6SM -SHRA BKN050 OVC080 
     FM191200 19009KT P6SM -SHRA BKN050 OVC080 
     FM191800 19010KT P6SM VCSH BKN050 BKN080
       
KHII 190415Z AUTO 33003KT 10SM CLR 13/M02 A3003 RMK AO2
KIFP 190415Z AUTO 14004KT 10SM CLR 11/00 A3002 RMK AO2
KIFP 182320Z 1900/1924 21008KT P6SM BKN250 
     FM190300 17008KT P6SM SCT080 BKN150 
     FM190700 17011KT P6SM -SHRA SCT050 OVC080 
     FM191600 17011KT P6SM -SHRA BKN050 OVC080